Time;durP1;ratioP1;P1;durP2;ratioP2;P2;SDS_P1;SDS_P2;PMS_P1;PMS_P2;Temp;Humidity;BMP_temperature;BMP_pressure;BME280_temperature;BME280_humidity;BME280_pressure;Samples;Min_cycle;Max_cycle;Signal;HPM_P1;HPM_P2
2022/06/20 00:02:15;;;;;;;2.42;2.03;;;;;;;;;;5021339;28;20244;-51
2022/06/20 00:04:41;;;;;;;2.80;1.88;;;;;;;;;;5027305;28;20271;-53
2022/06/20 00:07:09;;;;;;;4.82;2.58;;;;;;;;;;5023654;28;20231;-50
2022/06/20 00:09:35;;;;;;;5.70;2.53;;;;;;;;;;5026170;28;20229;-51
2022/06/20 00:12:02;;;;;;;4.65;1.77;;;;;;;;;;5025204;28;20247;-51
2022/06/20 00:14:29;;;;;;;8.05;2.72;;;;;;;;;;5037676;28;20238;-51
2022/06/20 00:16:56;;;;;;;3.15;2.35;;;;;;;;;;5020581;28;20240;-51
2022/06/20 00:19:22;;;;;;;8.05;2.55;;;;;;;;;;5023469;28;20723;-51
2022/06/20 00:21:49;;;;;;;5.13;2.25;;;;;;;;;;5024508;28;20232;-51
2022/06/20 00:24:15;;;;;;;6.20;2.53;;;;;;;;;;5025637;28;20240;-51
2022/06/20 00:26:41;;;;;;;3.60;1.67;;;;;;;;;;5021543;28;20236;-51
2022/06/20 00:29:08;;;;;;;5.78;2.35;;;;;;;;;;5029324;28;20233;-52
2022/06/20 00:31:36;;;;;;;3.20;2.30;;;;;;;;;;5036218;28;20693;-50
2022/06/20 00:34:03;;;;;;;2.58;1.98;;;;;;;;;;5046638;28;20228;-51
2022/06/20 00:36:30;;;;;;;5.03;2.40;;;;;;;;;;5024676;28;20228;-51
2022/06/20 00:38:57;;;;;;;2.30;1.95;;;;;;;;;;5022240;28;20753;-51
2022/06/20 00:41:25;;;;;;;3.58;2.42;;;;;;;;;;5025063;28;20235;-53
2022/06/20 00:43:53;;;;;;;5.60;2.65;;;;;;;;;;5025518;28;20244;-50
2022/06/20 00:46:24;;;;;;;4.72;2.70;;;;;;;;;;5042805;28;20248;-50
2022/06/20 00:48:55;;;;;;;5.88;2.25;;;;;;;;;;5029496;28;20718;-51
2022/06/20 00:51:24;;;;;;;3.00;2.47;;;;;;;;;;5026837;28;20237;-52
2022/06/20 00:53:54;;;;;;;3.55;2.45;;;;;;;;;;5025707;28;20239;-51
2022/06/20 00:56:25;;;;;;;3.30;2.60;;;;;;;;;;5023239;28;20232;-55
2022/06/20 00:58:54;;;;;;;7.25;2.95;;;;;;;;;;5022793;28;20241;-52
2022/06/20 01:01:23;;;;;;;7.97;3.17;;;;;;;;;;5021273;28;20252;-53
2022/06/20 01:03:52;;;;;;;5.07;2.42;;;;;;;;;;5024882;28;20755;-52
2022/06/20 01:06:23;;;;;;;5.97;2.30;;;;;;;;;;5022612;28;20244;-52
2022/06/20 01:08:52;;;;;;;5.55;2.17;;;;;;;;;;5020659;28;20665;-52
2022/06/20 01:11:21;;;;;;;7.65;2.08;;;;;;;;;;5023127;28;20243;-50
2022/06/20 01:13:48;;;;;;;5.00;2.40;;;;;;;;;;5032795;28;20650;-51
2022/06/20 01:16:20;;;;;;;5.70;2.40;;;;;;;;;;5021836;28;20661;-51
2022/06/20 01:18:48;;;;;;;4.72;2.80;;;;;;;;;;5023216;28;20320;-52
2022/06/20 01:21:16;;;;;;;4.78;2.45;;;;;;;;;;5023038;28;20313;-51
2022/06/20 01:23:47;;;;;;;4.97;2.83;;;;;;;;;;5014028;28;20233;-51
2022/06/20 01:26:22;;;;;;;7.68;3.67;;;;;;;;;;5020102;28;20900;-52
2022/06/20 01:28:52;;;;;;;6.07;3.28;;;;;;;;;;5019985;28;20368;-51
2022/06/20 01:31:20;;;;;;;8.38;3.05;;;;;;;;;;5022246;28;20711;-52
2022/06/20 01:33:47;;;;;;;7.32;3.40;;;;;;;;;;5025402;28;20301;-51
2022/06/20 01:38:59;;;;;;;9.27;3.40;;;;;;;;;;5024966;28;20239;-52
2022/06/20 01:44:11;;;;;;;2.50;2.22;;;;;;;;;;5018222;28;20302;-52
2022/06/20 01:46:37;;;;;;;4.82;3.15;;;;;;;;;;5019094;28;20228;-51
2022/06/20 01:49:05;;;;;;;9.18;4.28;;;;;;;;;;5020806;28;20728;-50
2022/06/20 01:51:33;;;;;;;6.68;4.00;;;;;;;;;;5024211;28;20232;-53
2022/06/20 01:54:00;;;;;;;5.45;4.22;;;;;;;;;;5021904;28;20280;-51
2022/06/20 01:56:27;;;;;;;6.97;4.20;;;;;;;;;;5019107;28;20474;-50
2022/06/20 01:58:57;;;;;;;4.55;3.17;;;;;;;;;;5020733;28;20420;-52
2022/06/20 02:01:26;;;;;;;5.80;3.15;;;;;;;;;;5018497;28;20316;-54
2022/06/20 02:03:53;;;;;;;5.88;2.90;;;;;;;;;;5023825;28;20244;-52
2022/06/20 02:06:19;;;;;;;4.50;2.53;;;;;;;;;;5020722;28;20233;-52
2022/06/20 02:08:55;;;;;;;6.10;3.60;;;;;;;;;;5020258;28;20229;-51
2022/06/20 02:11:23;;;;;;;2.88;2.60;;;;;;;;;;5019032;28;20240;-52
2022/06/20 02:13:51;;;;;;;6.05;3.03;;;;;;;;;;5039911;28;20231;-52
2022/06/20 02:16:19;;;;;;;5.28;3.55;;;;;;;;;;5029882;28;20239;-50
2022/06/20 02:18:48;;;;;;;4.72;2.80;;;;;;;;;;5015230;28;20237;-51
2022/06/20 02:21:18;;;;;;;4.90;3.28;;;;;;;;;;5017334;28;20342;-52
2022/06/20 02:23:47;;;;;;;4.95;3.05;;;;;;;;;;5012229;28;20344;-51
2022/06/20 02:26:14;;;;;;;4.65;3.00;;;;;;;;;;5019865;28;20296;-51
2022/06/20 02:28:44;;;;;;;4.00;2.90;;;;;;;;;;5017880;28;20244;-51
2022/06/20 02:31:10;;;;;;;7.18;3.35;;;;;;;;;;5020433;28;20228;-51
2022/06/20 02:33:37;;;;;;;6.65;2.92;;;;;;;;;;5024371;28;20236;-51
2022/06/20 02:36:07;;;;;;;6.07;3.42;;;;;;;;;;5019106;28;20251;-50
2022/06/20 02:38:33;;;;;;;4.25;3.30;;;;;;;;;;5022176;28;20240;-51
2022/06/20 02:41:00;;;;;;;7.07;3.03;;;;;;;;;;5027397;28;20232;-51
2022/06/20 02:43:30;;;;;;;5.43;3.20;;;;;;;;;;5022055;28;20255;-51
2022/06/20 02:45:57;;;;;;;4.78;2.80;;;;;;;;;;5039011;28;20227;-51
2022/06/20 02:48:25;;;;;;;4.97;2.92;;;;;;;;;;5021782;28;20232;-51
2022/06/20 02:50:54;;;;;;;4.40;3.08;;;;;;;;;;5020041;28;20295;-51
2022/06/20 02:53:23;;;;;;;6.90;3.78;;;;;;;;;;5023755;28;20259;-51
2022/06/20 02:55:50;;;;;;;4.18;3.35;;;;;;;;;;5022409;28;20232;-51
2022/06/20 02:58:19;;;;;;;8.23;3.40;;;;;;;;;;5023223;28;20233;-50
2022/06/20 03:00:48;;;;;;;3.53;2.60;;;;;;;;;;5022092;28;20238;-51
2022/06/20 03:03:17;;;;;;;5.97;2.53;;;;;;;;;;5028074;28;20708;-50
2022/06/20 03:05:43;;;;;;;5.80;3.05;;;;;;;;;;5042746;28;20240;-53
2022/06/20 03:08:10;;;;;;;5.28;2.97;;;;;;;;;;5020255;28;20240;-51
2022/06/20 03:10:40;;;;;;;3.15;2.83;;;;;;;;;;5033993;28;20825;-51
2022/06/20 03:13:07;;;;;;;3.70;2.78;;;;;;;;;;5059068;28;20590;-51
2022/06/20 03:15:34;;;;;;;5.82;2.80;;;;;;;;;;5026944;28;22515;-51
2022/06/20 03:18:00;;;;;;;2.40;2.20;;;;;;;;;;5025738;28;20251;-51
2022/06/20 03:20:27;;;;;;;5.35;3.17;;;;;;;;;;5043018;28;20239;-51
2022/06/20 03:22:57;;;;;;;5.60;2.60;;;;;;;;;;5027796;28;20311;-52
2022/06/20 03:25:23;;;;;;;6.20;2.90;;;;;;;;;;5026003;28;20362;-52
2022/06/20 03:27:52;;;;;;;4.72;2.63;;;;;;;;;;5019294;28;20236;-60
2022/06/20 03:30:24;;;;;;;7.22;3.28;;;;;;;;;;5025075;28;20741;-51
2022/06/20 03:32:53;;;;;;;3.25;2.30;;;;;;;;;;5023657;28;20240;-51
2022/06/20 03:35:19;;;;;;;3.25;2.55;;;;;;;;;;5024959;28;20260;-51
2022/06/20 03:37:46;;;;;;;5.80;3.28;;;;;;;;;;5030020;28;20240;-51
2022/06/20 03:40:13;;;;;;;4.18;2.80;;;;;;;;;;5032298;28;20298;-50
2022/06/20 03:42:39;;;;;;;4.28;2.80;;;;;;;;;;5027242;28;20731;-51
2022/06/20 03:45:08;;;;;;;4.47;3.03;;;;;;;;;;5027844;28;20229;-53
2022/06/20 03:47:40;;;;;;;3.22;2.58;;;;;;;;;;5024763;28;20240;-51
2022/06/20 03:50:08;;;;;;;3.28;2.63;;;;;;;;;;5022798;28;20719;-51
2022/06/20 03:52:37;;;;;;;4.78;2.40;;;;;;;;;;5049736;28;20224;-51
2022/06/20 03:55:05;;;;;;;3.97;2.45;;;;;;;;;;5026606;28;20224;-52
2022/06/20 03:57:33;;;;;;;3.80;2.42;;;;;;;;;;5024851;28;20238;-51
2022/06/20 04:00:02;;;;;;;8.60;3.00;;;;;;;;;;5026801;28;20229;-51
2022/06/20 04:02:32;;;;;;;2.70;1.85;;;;;;;;;;5046266;28;20236;-51
2022/06/20 04:05:00;;;;;;;4.80;2.63;;;;;;;;;;5023406;28;20237;-52
2022/06/20 04:07:29;;;;;;;4.03;2.45;;;;;;;;;;5033429;28;20228;-51
2022/06/20 04:12:46;;;;;;;5.65;2.10;;;;;;;;;;5025136;28;20599;-51
2022/06/20 04:15:16;;;;;;;4.90;2.30;;;;;;;;;;5021047;28;20244;-50
2022/06/20 04:20:34;;;;;;;2.85;2.28;;;;;;;;;;5021760;28;20243;-50
2022/06/20 04:23:01;;;;;;;2.63;2.25;;;;;;;;;;5043196;28;20231;-53
2022/06/20 04:25:31;;;;;;;4.72;2.25;;;;;;;;;;5026587;28;20228;-56
2022/06/20 04:28:02;;;;;;;4.35;2.45;;;;;;;;;;5024853;28;20229;-53
2022/06/20 04:30:33;;;;;;;4.00;2.15;;;;;;;;;;5022834;28;20235;-52
2022/06/20 04:33:04;;;;;;;3.13;2.35;;;;;;;;;;5021011;28;20237;-50
2022/06/20 04:35:33;;;;;;;4.07;3.03;;;;;;;;;;5026177;28;20737;-52
2022/06/20 04:38:01;;;;;;;5.78;2.38;;;;;;;;;;5022248;28;20560;-52
2022/06/20 04:40:29;;;;;;;2.97;2.50;;;;;;;;;;5022957;28;20232;-53
2022/06/20 04:43:01;;;;;;;6.78;2.85;;;;;;;;;;5032009;28;20291;-52
2022/06/20 04:45:29;;;;;;;6.47;2.70;;;;;;;;;;5023524;28;20318;-50
2022/06/20 04:47:56;;;;;;;4.85;3.45;;;;;;;;;;5025390;28;20948;-52
2022/06/20 04:50:26;;;;;;;3.00;2.67;;;;;;;;;;5020923;28;20233;-52
2022/06/20 04:52:54;;;;;;;4.60;2.33;;;;;;;;;;5021496;28;20248;-51
2022/06/20 04:55:22;;;;;;;4.05;2.92;;;;;;;;;;5029426;28;20239;-51
2022/06/20 04:57:48;;;;;;;5.00;3.05;;;;;;;;;;5028369;28;20233;-51
2022/06/20 05:00:18;;;;;;;3.20;2.90;;;;;;;;;;5031083;28;20444;-52
2022/06/20 05:02:45;;;;;;;3.95;2.92;;;;;;;;;;5063454;28;20282;-52
2022/06/20 05:05:13;;;;;;;4.35;2.67;;;;;;;;;;5041260;28;20323;-51
2022/06/20 05:07:41;;;;;;;4.25;3.10;;;;;;;;;;5023112;28;20339;-52
2022/06/20 05:10:11;;;;;;;6.80;3.75;;;;;;;;;;5023223;28;20243;-52
2022/06/20 05:12:40;;;;;;;5.22;3.40;;;;;;;;;;5038033;28;20310;-52
2022/06/20 05:15:10;;;;;;;6.53;2.90;;;;;;;;;;5024725;28;20225;-52
2022/06/20 05:17:37;;;;;;;5.57;3.47;;;;;;;;;;5022118;28;20228;-52
2022/06/20 05:20:07;;;;;;;5.93;3.92;;;;;;;;;;5019022;28;20232;-53
2022/06/20 05:22:35;;;;;;;10.02;4.78;;;;;;;;;;5020673;28;20237;-53
2022/06/20 05:25:05;;;;;;;10.07;5.03;;;;;;;;;;5016332;28;20229;-52
2022/06/20 05:27:35;;;;;;;10.98;4.50;;;;;;;;;;5033891;28;20260;-51
2022/06/20 05:30:03;;;;;;;5.50;4.47;;;;;;;;;;5019668;28;20232;-52
2022/06/20 05:32:37;;;;;;;6.28;4.97;;;;;;;;;;5028377;28;20608;-52
2022/06/20 05:35:06;;;;;;;10.73;5.57;;;;;;;;;;5022514;28;20234;-53
2022/06/20 05:37:36;;;;;;;11.85;6.35;;;;;;;;;;5021259;28;20236;-55
2022/06/20 05:40:07;;;;;;;16.48;7.22;;;;;;;;;;5018812;28;20236;-57
2022/06/20 05:42:33;;;;;;;13.30;6.53;;;;;;;;;;5018231;28;20240;-64
2022/06/20 05:45:00;;;;;;;8.77;6.53;;;;;;;;;;5022278;28;20256;-57
2022/06/20 05:47:29;;;;;;;6.30;5.70;;;;;;;;;;5026142;28;20251;-57
2022/06/20 05:49:58;;;;;;;9.13;6.15;;;;;;;;;;5025073;28;20256;-57
2022/06/20 05:52:27;;;;;;;9.05;6.90;;;;;;;;;;5021847;28;20236;-58
2022/06/20 05:54:56;;;;;;;8.95;6.65;;;;;;;;;;5028256;28;20233;-58
2022/06/20 05:57:26;;;;;;;7.35;5.88;;;;;;;;;;5014433;28;20232;-56
2022/06/20 05:59:55;;;;;;;8.93;6.28;;;;;;;;;;5039122;28;20232;-57
2022/06/20 06:02:24;;;;;;;8.85;5.70;;;;;;;;;;5045688;28;20236;-58
2022/06/20 06:04:53;;;;;;;11.18;6.72;;;;;;;;;;5042196;28;20239;-55
2022/06/20 06:07:22;;;;;;;9.98;6.75;;;;;;;;;;5045658;28;20224;-56
2022/06/20 06:09:51;;;;;;;14.30;8.35;;;;;;;;;;5041219;28;20228;-55
2022/06/20 06:12:22;;;;;;;9.35;5.82;;;;;;;;;;5038632;28;20231;-55
2022/06/20 06:14:53;;;;;;;9.52;6.90;;;;;;;;;;5017688;28;20228;-56
2022/06/20 06:17:22;;;;;;;12.05;8.02;;;;;;;;;;5017345;28;20306;-57
2022/06/20 06:19:52;;;;;;;12.75;7.45;;;;;;;;;;5021860;28;20315;-57
2022/06/20 06:22:21;;;;;;;11.23;7.75;;;;;;;;;;5032288;28;20242;-58
2022/06/20 06:24:49;;;;;;;11.45;7.65;;;;;;;;;;5027303;28;20606;-57
2022/06/20 06:27:18;;;;;;;8.82;7.57;;;;;;;;;;5021256;28;20229;-57
2022/06/20 06:29:48;;;;;;;10.95;7.28;;;;;;;;;;5031144;28;20240;-57
2022/06/20 06:32:18;;;;;;;9.23;7.63;;;;;;;;;;5020783;28;20325;-56
2022/06/20 06:34:48;;;;;;;9.77;7.20;;;;;;;;;;5018931;28;20236;-58
2022/06/20 06:37:17;;;;;;;8.57;6.90;;;;;;;;;;5024450;28;20235;-55
2022/06/20 06:39:47;;;;;;;8.25;7.03;;;;;;;;;;5020659;28;20244;-56
2022/06/20 06:42:15;;;;;;;9.45;7.93;;;;;;;;;;5018532;28;20240;-58
2022/06/20 06:44:43;;;;;;;10.18;7.90;;;;;;;;;;5020886;28;20337;-59
2022/06/20 06:47:17;;;;;;;8.65;7.35;;;;;;;;;;5021202;28;20237;-57
2022/06/20 06:49:46;;;;;;;7.70;6.10;;;;;;;;;;5016506;28;20263;-56
2022/06/20 06:52:14;;;;;;;7.05;6.18;;;;;;;;;;5021252;28;20340;-56
2022/06/20 06:54:47;;;;;;;6.93;6.32;;;;;;;;;;5021264;28;20302;-57
2022/06/20 06:57:17;;;;;;;8.77;7.05;;;;;;;;;;5019178;28;20236;-54
2022/06/20 06:59:45;;;;;;;7.07;6.45;;;;;;;;;;5033015;28;20343;-56
2022/06/20 07:02:14;;;;;;;8.32;7.13;;;;;;;;;;5023959;28;20895;-55
2022/06/20 07:04:43;;;;;;;7.07;6.10;;;;;;;;;;5021520;28;20237;-55
2022/06/20 07:07:15;;;;;;;6.50;5.90;;;;;;;;;;5016278;28;20225;-55
2022/06/20 07:09:43;;;;;;;9.38;7.28;;;;;;;;;;5025028;28;20228;-55
2022/06/20 07:12:14;;;;;;;7.30;6.22;;;;;;;;;;5014966;28;20240;-56
2022/06/20 07:14:41;;;;;;;6.63;5.50;;;;;;;;;;5030620;28;20224;-54
2022/06/20 07:17:11;;;;;;;9.00;6.68;;;;;;;;;;5022162;28;20232;-55
2022/06/20 07:19:40;;;;;;;8.88;7.05;;;;;;;;;;5017103;28;20249;-54
2022/06/20 07:22:06;;;;;;;8.80;6.68;;;;;;;;;;5019156;28;20240;-54
2022/06/20 07:24:35;;;;;;;7.50;6.22;;;;;;;;;;5022809;28;20232;-53
2022/06/20 07:27:06;;;;;;;7.50;6.80;;;;;;;;;;5024120;28;20294;-54
2022/06/20 07:29:34;;;;;;;7.05;5.80;;;;;;;;;;5041517;28;20235;-53
2022/06/20 07:32:02;;;;;;;8.75;6.43;;;;;;;;;;5018827;28;20240;-52
2022/06/20 07:34:32;;;;;;;7.32;5.63;;;;;;;;;;5022598;28;20278;-52
2022/06/20 07:37:01;;;;;;;9.93;8.15;;;;;;;;;;5021699;28;20243;-53
2022/06/20 07:39:29;;;;;;;7.10;6.50;;;;;;;;;;5019112;28;20232;-53
2022/06/20 07:42:02;;;;;;;8.20;6.70;;;;;;;;;;5020743;28;20244;-54
2022/06/20 07:44:31;;;;;;;7.40;6.68;;;;;;;;;;5024441;28;20608;-53
2022/06/20 07:46:59;;;;;;;7.35;6.32;;;;;;;;;;5022748;28;20229;-52
2022/06/20 07:49:27;;;;;;;7.20;6.50;;;;;;;;;;5021305;28;20247;-51
2022/06/20 07:51:56;;;;;;;7.97;7.18;;;;;;;;;;5021505;28;20244;-52
2022/06/20 07:54:26;;;;;;;7.50;6.03;;;;;;;;;;5012916;28;20282;-53
2022/06/20 07:56:54;;;;;;;6.97;6.28;;;;;;;;;;5026692;28;20621;-52
2022/06/20 07:59:24;;;;;;;7.43;6.72;;;;;;;;;;5015221;28;20236;-52
2022/06/20 08:01:53;;;;;;;7.28;6.03;;;;;;;;;;5013223;28;20240;-52
2022/06/20 08:04:27;;;;;;;7.28;6.18;;;;;;;;;;5021738;28;20231;-52
2022/06/20 08:06:55;;;;;;;6.88;5.60;;;;;;;;;;5024561;28;20290;-53
2022/06/20 08:09:25;;;;;;;5.68;5.18;;;;;;;;;;5025426;28;20233;-53
2022/06/20 08:11:55;;;;;;;6.68;5.97;;;;;;;;;;5016501;28;20244;-53
2022/06/20 08:14:31;;;;;;;6.80;6.30;;;;;;;;;;5026222;28;20786;-52
2022/06/20 08:16:59;;;;;;;6.22;5.72;;;;;;;;;;5023307;28;20220;-52
2022/06/20 08:19:26;;;;;;;10.02;6.18;;;;;;;;;;5031839;28;20247;-52
2022/06/20 08:21:57;;;;;;;6.43;5.57;;;;;;;;;;5027534;28;20252;-52
2022/06/20 08:24:26;;;;;;;6.60;5.72;;;;;;;;;;5023118;28;20233;-54
2022/06/20 08:26:55;;;;;;;10.80;6.50;;;;;;;;;;5018994;28;20244;-51
2022/06/20 08:29:25;;;;;;;8.15;6.93;;;;;;;;;;5023782;28;20228;-53
2022/06/20 08:31:54;;;;;;;8.65;6.10;;;;;;;;;;5022673;28;20272;-52
2022/06/20 08:34:23;;;;;;;6.35;5.85;;;;;;;;;;5018614;28;20604;-53
2022/06/20 08:36:51;;;;;;;6.65;5.95;;;;;;;;;;5019790;28;20247;-51
2022/06/20 08:39:20;;;;;;;7.30;6.20;;;;;;;;;;5020242;28;20237;-53
2022/06/20 08:42:07;;;;;;;6.93;6.20;;;;;;;;;;5025394;28;20721;-52
2022/06/20 08:44:53;;;;;;;6.22;5.43;;;;;;;;;;5022345;28;20244;-56
2022/06/20 08:47:37;;;;;;;7.90;5.97;;;;;;;;;;5017624;28;20252;-53
2022/06/20 08:50:31;;;;;;;7.38;6.60;;;;;;;;;;5035918;28;20238;-51
2022/06/20 08:53:17;;;;;;;5.38;4.82;;;;;;;;;;5044732;28;20228;-53
2022/06/20 08:55:56;;;;;;;7.35;5.13;;;;;;;;;;5024379;28;20256;-51
2022/06/20 08:58:27;;;;;;;7.80;5.57;;;;;;;;;;5021352;28;20231;-52
2022/06/20 09:00:58;;;;;;;6.82;5.97;;;;;;;;;;5043472;28;20250;-51
2022/06/20 09:03:35;;;;;;;7.78;5.80;;;;;;;;;;5036597;28;20236;-51
2022/06/20 09:06:11;;;;;;;6.43;5.78;;;;;;;;;;5025745;28;20236;-52
2022/06/20 09:08:57;;;;;;;7.03;6.10;;;;;;;;;;5026991;28;20657;-51
2022/06/20 09:11:32;;;;;;;7.65;6.55;;;;;;;;;;5027455;28;20235;-53
2022/06/20 09:14:08;;;;;;;10.00;6.25;;;;;;;;;;5047723;28;20319;-51
2022/06/20 09:16:40;;;;;;;5.55;5.05;;;;;;;;;;5017472;28;20328;-52
2022/06/20 09:19:15;;;;;;;5.57;4.80;;;;;;;;;;5038587;28;20232;-52
2022/06/20 09:21:47;;;;;;;5.47;4.97;;;;;;;;;;5050980;28;20232;-51
2022/06/20 09:24:20;;;;;;;5.97;4.63;;;;;;;;;;5024524;28;20260;-53
2022/06/20 09:26:53;;;;;;;4.70;4.25;;;;;;;;;;5024953;28;20233;-51
2022/06/20 09:29:27;;;;;;;6.57;4.78;;;;;;;;;;5047656;28;20235;-52
2022/06/20 09:32:11;;;;;;;4.82;4.38;;;;;;;;;;5019911;28;20244;-55
2022/06/20 09:34:56;;;;;;;5.65;4.32;;;;;;;;;;5025704;28;20228;-53
2022/06/20 09:37:37;;;;;;;5.65;4.72;;;;;;;;;;5040635;28;20230;-51
2022/06/20 09:40:10;;;;;;;5.00;4.10;;;;;;;;;;5034029;28;20500;-58
2022/06/20 09:42:40;;;;;;;5.40;4.25;;;;;;;;;;5027778;28;20236;-52
2022/06/20 09:45:11;;;;;;;12.85;5.82;;;;;;;;;;5022294;28;20335;-52
2022/06/20 09:47:41;;;;;;;8.07;4.38;;;;;;;;;;5035124;28;20595;-51
2022/06/20 09:50:25;;;;;;;7.30;4.45;;;;;;;;;;5025438;28;20319;-52
2022/06/20 09:52:57;;;;;;;5.05;3.83;;;;;;;;;;5019997;28;20266;-51
2022/06/20 09:55:28;;;;;;;4.70;4.30;;;;;;;;;;5027696;28;20710;-52
2022/06/20 09:57:57;;;;;;;4.90;4.47;;;;;;;;;;5023193;28;20236;-53
2022/06/20 10:00:26;;;;;;;5.15;4.53;;;;;;;;;;5021836;28;20695;-52
2022/06/20 10:02:57;;;;;;;5.18;4.78;;;;;;;;;;5041467;28;20239;-52
2022/06/20 10:05:32;;;;;;;5.47;4.70;;;;;;;;;;5037475;28;20232;-52
2022/06/20 10:08:04;;;;;;;5.28;4.85;;;;;;;;;;5038524;28;20223;-53
2022/06/20 10:10:33;;;;;;;7.65;5.07;;;;;;;;;;5042514;28;20593;-53
2022/06/20 10:13:01;;;;;;;7.07;6.25;;;;;;;;;;5036898;28;20431;-53
2022/06/20 10:15:31;;;;;;;8.77;6.40;;;;;;;;;;5036571;28;20227;-53
2022/06/20 10:18:02;;;;;;;5.95;5.40;;;;;;;;;;5042458;28;20226;-52
2022/06/20 10:20:33;;;;;;;5.38;4.88;;;;;;;;;;5041707;28;20230;-55
2022/06/20 10:23:07;;;;;;;7.13;4.88;;;;;;;;;;5042155;28;20717;-52
2022/06/20 10:25:44;;;;;;;8.38;5.68;;;;;;;;;;5037842;28;20690;-51
2022/06/20 10:28:15;;;;;;;8.43;5.88;;;;;;;;;;5036763;28;20261;-52
2022/06/20 10:30:45;;;;;;;7.63;4.50;;;;;;;;;;5040665;28;20231;-52
2022/06/20 10:33:21;;;;;;;6.07;5.47;;;;;;;;;;5039332;28;20721;-52
2022/06/20 10:35:51;;;;;;;5.97;4.68;;;;;;;;;;5036809;28;20231;-52
2022/06/20 10:38:32;;;;;;;5.20;4.78;;;;;;;;;;5042530;28;20232;-52
2022/06/20 10:41:06;;;;;;;5.20;4.53;;;;;;;;;;5038423;28;20634;-53
2022/06/20 10:43:50;;;;;;;6.18;5.60;;;;;;;;;;5036012;28;20232;-54
2022/06/20 10:46:21;;;;;;;6.50;4.93;;;;;;;;;;5040943;28;20239;-53
2022/06/20 10:48:56;;;;;;;6.05;5.47;;;;;;;;;;5040509;28;20256;-54
2022/06/20 10:51:29;;;;;;;7.22;6.40;;;;;;;;;;5023831;28;20850;-55
2022/06/20 10:54:00;;;;;;;6.07;5.45;;;;;;;;;;5021156;28;20388;-56
2022/06/20 10:56:31;;;;;;;7.55;5.78;;;;;;;;;;5021313;28;20260;-54
2022/06/20 10:59:09;;;;;;;7.45;5.82;;;;;;;;;;5021278;28;20311;-55
2022/06/20 11:01:39;;;;;;;5.40;4.72;;;;;;;;;;5008423;28;20603;-56
2022/06/20 11:04:14;;;;;;;6.68;5.60;;;;;;;;;;5020373;28;20728;-54
2022/06/20 11:06:48;;;;;;;7.90;5.13;;;;;;;;;;5022290;28;20234;-54
2022/06/20 11:09:18;;;;;;;6.97;5.15;;;;;;;;;;5018378;28;20239;-54
2022/06/20 11:11:50;;;;;;;6.78;5.90;;;;;;;;;;5020173;28;20651;-54
2022/06/20 11:14:24;;;;;;;7.40;6.68;;;;;;;;;;5023367;28;20228;-56
2022/06/20 11:16:57;;;;;;;9.68;5.97;;;;;;;;;;5019921;28;20240;-54
2022/06/20 11:19:27;;;;;;;5.97;5.38;;;;;;;;;;5019952;28;20236;-53
2022/06/20 11:21:59;;;;;;;6.60;5.93;;;;;;;;;;5029488;28;20324;-53
2022/06/20 11:24:31;;;;;;;6.25;5.65;;;;;;;;;;5039332;28;20235;-53
2022/06/20 11:27:04;;;;;;;8.20;5.45;;;;;;;;;;5043333;28;20237;-53
2022/06/20 11:29:38;;;;;;;7.60;6.30;;;;;;;;;;5036217;28;20440;-55
2022/06/20 11:32:11;;;;;;;5.18;4.70;;;;;;;;;;5032785;28;20235;-55
2022/06/20 11:34:50;;;;;;;5.68;5.10;;;;;;;;;;5014304;28;20236;-53
2022/06/20 11:37:22;;;;;;;8.73;6.50;;;;;;;;;;5043398;28;20238;-54
2022/06/20 11:39:56;;;;;;;5.40;5.00;;;;;;;;;;5024726;28;20319;-53
2022/06/20 11:42:41;;;;;;;6.20;5.60;;;;;;;;;;5024754;28;20329;-56
2022/06/20 11:45:18;;;;;;;4.88;4.47;;;;;;;;;;5029212;28;20235;-52
2022/06/20 11:47:57;;;;;;;4.40;4.00;;;;;;;;;;5026122;28;20221;-53
2022/06/20 11:50:39;;;;;;;5.70;5.15;;;;;;;;;;5023389;28;20251;-52
2022/06/20 11:53:11;;;;;;;5.03;4.60;;;;;;;;;;5019420;28;20233;-52
2022/06/20 11:55:39;;;;;;;4.53;3.83;;;;;;;;;;5038423;28;20311;-53
2022/06/20 11:58:10;;;;;;;3.92;3.05;;;;;;;;;;5026836;28;20228;-53
2022/06/20 12:00:39;;;;;;;4.72;2.75;;;;;;;;;;5025700;28;20233;-54
2022/06/20 12:03:11;;;;;;;2.67;2.47;;;;;;;;;;5026885;28;20228;-53
2022/06/20 12:05:44;;;;;;;4.20;2.97;;;;;;;;;;5020460;28;20232;-52
2022/06/20 12:08:19;;;;;;;3.67;3.08;;;;;;;;;;5032161;28;20225;-53
2022/06/20 12:10:47;;;;;;;3.20;2.88;;;;;;;;;;5026545;28;20833;-52
2022/06/20 12:13:21;;;;;;;2.80;2.60;;;;;;;;;;5031142;28;20228;-52
2022/06/20 12:15:52;;;;;;;2.63;2.42;;;;;;;;;;5030056;28;20227;-52
2022/06/20 12:18:23;;;;;;;2.40;2.20;;;;;;;;;;5024746;28;20236;-52
2022/06/20 12:23:40;;;;;;;2.28;1.98;;;;;;;;;;5053829;28;20856;-51
2022/06/20 12:26:08;;;;;;;5.07;2.30;;;;;;;;;;5041484;28;20239;-52
2022/06/20 12:28:37;;;;;;;3.20;2.70;;;;;;;;;;5040738;28;20849;-51
2022/06/20 12:31:11;;;;;;;4.20;2.13;;;;;;;;;;5041130;28;20236;-53
2022/06/20 12:33:39;;;;;;;3.38;2.20;;;;;;;;;;5042061;28;20681;-52
2022/06/20 12:36:11;;;;;;;2.60;2.40;;;;;;;;;;5037636;28;20228;-51
2022/06/20 12:38:41;;;;;;;3.03;2.55;;;;;;;;;;5044182;28;20326;-51
2022/06/20 12:41:10;;;;;;;3.95;1.75;;;;;;;;;;5048069;28;20236;-52
2022/06/20 12:43:40;;;;;;;3.28;2.03;;;;;;;;;;5047259;28;20247;-52
2022/06/20 12:46:21;;;;;;;3.22;1.95;;;;;;;;;;5042715;28;20234;-52
2022/06/20 12:49:13;;;;;;;3.95;2.38;;;;;;;;;;5046527;28;20608;-52
2022/06/20 12:51:45;;;;;;;3.40;2.25;;;;;;;;;;5046230;28;20433;-51
2022/06/20 12:54:24;;;;;;;2.97;1.95;;;;;;;;;;5048745;28;20745;-52
2022/06/20 12:56:58;;;;;;;1.98;1.88;;;;;;;;;;5044741;28;20269;-52
2022/06/20 12:59:43;;;;;;;1.70;1.60;;;;;;;;;;5055934;28;20235;-51
2022/06/20 13:02:14;;;;;;;1.73;1.63;;;;;;;;;;5035636;28;20227;-52
2022/06/20 13:04:55;;;;;;;2.88;1.70;;;;;;;;;;5023051;28;20233;-51
2022/06/20 13:07:36;;;;;;;1.77;1.60;;;;;;;;;;5007390;28;20235;-51
2022/06/20 13:10:17;;;;;;;3.90;1.42;;;;;;;;;;5035609;28;20227;-51
2022/06/20 13:12:49;;;;;;;1.58;1.48;;;;;;;;;;5039149;28;20247;-52
2022/06/20 13:15:36;;;;;;;2.95;1.30;;;;;;;;;;5043231;28;20236;-51
2022/06/20 13:18:08;;;;;;;1.30;1.20;;;;;;;;;;5027228;28;20275;-54
2022/06/20 13:20:40;;;;;;;2.28;1.40;;;;;;;;;;5022920;28;20241;-52
2022/06/20 13:23:24;;;;;;;2.67;1.00;;;;;;;;;;5028313;28;20233;-52
2022/06/20 13:25:52;;;;;;;1.33;1.23;;;;;;;;;;5038884;28;20229;-52
2022/06/20 13:28:23;;;;;;;1.98;1.25;;;;;;;;;;5030521;28;20240;-52
2022/06/20 13:30:58;;;;;;;1.48;1.38;;;;;;;;;;5023417;28;20228;-52
2022/06/20 13:33:29;;;;;;;3.30;1.67;;;;;;;;;;5021401;28;20232;-52
2022/06/20 13:35:59;;;;;;;1.55;1.42;;;;;;;;;;5024095;28;20905;-51
2022/06/20 13:38:28;;;;;;;1.70;1.60;;;;;;;;;;5026937;28;20258;-51
2022/06/20 13:40:58;;;;;;;1.58;1.40;;;;;;;;;;5026520;28;20283;-55
2022/06/20 13:43:30;;;;;;;1.83;1.70;;;;;;;;;;5027116;28;20243;-53
2022/06/20 13:46:00;;;;;;;1.42;1.27;;;;;;;;;;5034363;28;20246;-59
2022/06/20 13:48:29;;;;;;;2.40;1.50;;;;;;;;;;5023668;28;20718;-51
2022/06/20 13:51:00;;;;;;;3.97;2.10;;;;;;;;;;5029985;28;20240;-53
2022/06/20 13:53:29;;;;;;;2.22;2.08;;;;;;;;;;5025627;28;20244;-52
2022/06/20 13:55:59;;;;;;;8.00;2.40;;;;;;;;;;5024876;28;20236;-52
2022/06/20 13:58:29;;;;;;;3.10;2.33;;;;;;;;;;5021295;28;20410;-53
2022/06/20 14:00:57;;;;;;;4.15;2.53;;;;;;;;;;5023610;28;20232;-50
2022/06/20 14:03:26;;;;;;;2.67;2.20;;;;;;;;;;5042537;28;20721;-51
2022/06/20 14:06:03;;;;;;;3.05;2.78;;;;;;;;;;5029883;28;20236;-52
2022/06/20 14:08:30;;;;;;;2.75;2.50;;;;;;;;;;5025785;28;20236;-51
2022/06/20 14:10:59;;;;;;;2.50;2.30;;;;;;;;;;5025602;28;20224;-51
2022/06/20 14:13:27;;;;;;;3.22;3.00;;;;;;;;;;5025820;28;20860;-53
2022/06/20 14:15:54;;;;;;;3.58;2.95;;;;;;;;;;5023123;28;20240;-50
2022/06/20 14:18:22;;;;;;;3.53;2.88;;;;;;;;;;5022732;28;20362;-51
2022/06/20 14:20:58;;;;;;;3.50;3.20;;;;;;;;;;5017128;28;20240;-51
2022/06/20 14:23:25;;;;;;;5.22;3.47;;;;;;;;;;5023854;28;20315;-51
2022/06/20 14:25:54;;;;;;;4.65;3.80;;;;;;;;;;5031959;28;20224;-52
2022/06/20 14:28:23;;;;;;;3.38;3.08;;;;;;;;;;5022557;28;20240;-52
2022/06/20 14:30:52;;;;;;;4.72;3.35;;;;;;;;;;5020833;28;20666;-52
2022/06/20 14:33:20;;;;;;;4.03;3.63;;;;;;;;;;5024571;28;20232;-51
2022/06/20 14:35:55;;;;;;;4.85;4.35;;;;;;;;;;5023378;28;20252;-51
2022/06/20 14:38:24;;;;;;;4.30;3.80;;;;;;;;;;5018727;28;20282;-51
2022/06/20 14:40:53;;;;;;;6.18;4.38;;;;;;;;;;5036317;28;20240;-52
2022/06/20 14:43:23;;;;;;;5.35;4.30;;;;;;;;;;5020133;28;20310;-55
2022/06/20 14:46:00;;;;;;;5.40;4.45;;;;;;;;;;5017582;28;20241;-51
2022/06/20 14:48:27;;;;;;;4.05;3.75;;;;;;;;;;5025268;28;20767;-52
2022/06/20 14:50:55;;;;;;;6.13;4.32;;;;;;;;;;5019416;28;20467;-51
2022/06/20 14:53:28;;;;;;;8.15;3.88;;;;;;;;;;5038621;28;20231;-51
2022/06/20 14:55:59;;;;;;;5.22;3.85;;;;;;;;;;5023795;28;20236;-51
2022/06/20 14:58:30;;;;;;;12.07;4.88;;;;;;;;;;5018636;28;20642;-51
2022/06/20 15:00:59;;;;;;;8.30;7.47;;;;;;;;;;5015419;28;20228;-52
2022/06/20 15:03:29;;;;;;;9.35;6.38;;;;;;;;;;5018576;28;21607;-53
2022/06/20 15:06:00;;;;;;;3.80;3.50;;;;;;;;;;5018128;28;20232;-52
2022/06/20 15:08:32;;;;;;;6.90;3.88;;;;;;;;;;5020879;28;20268;-52
2022/06/20 15:11:00;;;;;;;3.92;3.58;;;;;;;;;;5019744;28;20243;-52
2022/06/20 15:13:40;;;;;;;4.63;3.65;;;;;;;;;;5020982;28;20699;-52
2022/06/20 15:16:14;;;;;;;5.50;5.00;;;;;;;;;;5018170;28;20240;-51
2022/06/20 15:18:43;;;;;;;6.13;3.63;;;;;;;;;;5019162;28;20236;-52